The Official Home Page Of The Professional Rodeo Cowboys Association PRCA RAM WORLD STANDINGS
ProRodeoTv.Com



Official Gear Of The PRCA

PRCA Stock Statistics

SEARCH BY:
Stock Rodeo Contestant Stock Contractor

Mark Kreder

EVENT:
Unofficial results reflect placement at time of Web posting and can change.

SEASON BREAKDOWN

Season Attempts Qual Rides Re-rides Ride %
2018 67 62 0 92.54 %
2017 6 4 0 66.67 %
Totals 73 66 0 0.00 %

RODEO DETAIL

Date Location Rodeo SC Brand Ride Comments Stock Score Contestant Score
9/29/2018 Kansas City, MO American Royal Rodeo SS 013 70.00 21.00 / 21.00 13.00 / 15.00
9/28/2018 Stephenville, TX 49th Annual Cowboy Capital Of The World PRCA Rodeo PC 22 74.00 20.00 / 20.00 19.00 / 15.00
9/27/2018 New Braunfels, TX Comal County Fair & Rodeo LJ 101 80.50 21.50 / 20.50 21.00 / 17.50
9/22/2018 Texarkana, AR Four States Fair & Rodeo CR 48 76.50 22.50 / 23.00 16.00 / 15.00
9/21/2018 Springhill, LA Springhill PRCA Rodeo CP 77 0.00 0.00 / 0.00 0.00 / 0.00
9/20/2018 Amarillo, TX Amarillo Tri-State Fair And Rodeo AN P54 82.50 20.50 / 20.50 20.50 / 21.00
9/14/2018 Forrest City, AR Crowley s Ridge Saddle Club Charity Rodeo UR 410 82.00 20.00 / 20.00 21.00 / 21.00
9/12/2018 Albuquerque, NM New Mexico State Fair & Rodeo PK 6504- 84.50 22.50 / 23.00 19.00 / 20.00
9/8/2018 Fort Madison, IA Tri-State Rodeo CC U72 76.00 18.00 / 18.00 21.00 / 19.00
9/1/2018 Cedar Vale, KS Labor Day Rodeo SP 259 78.00 19.50 / 20.00 19.00 / 19.50
8/31/2018 Longford, KS Longford Rodeo NF 586 78.00 20.00 / 19.00 20.00 / 19.00
8/25/2018 Vinita, OK Will Rogers Memorial Rodeo RH 98 79.00 20.00 / 18.00 21.00 / 20.00
8/24/2018 Altus, OK Great Plains Stampede Rodeo AN 00 0.00 22.50 / 21.50 0.00 / 0.00
8/18/2018 Eureka, KS Eureka PRCA Rodeo UP 09 77.00 19.00 / 20.00 21.00 / 17.00
8/17/2018 Coffeyville, KS Inter-State Rodeo NF H09 75.00 19.00 / 21.00 20.00 / 15.00
8/11/2018 Crossett, AR Crossett Riding Club 70th Annual PRCA Rodeo PC 257 77.00 21.00 / 21.00 17.00 / 18.00
8/9/2018 Lawton, OK Lawton Rangers Rodeo AN R07 70.00 17.50 / 18.00 15.50 / 19.00
8/4/2018 Carson, IA Carson Community Rodeo TH M4 74.00 19.00 / 18.00 19.00 / 18.00
8/1/2018 Dodge City, KS Dodge City Roundup Rodeo HV 813 69.00 21.00 / 20.00 15.00 / 13.00
7/28/2018 Eagle, CO Eagle County Fair & Rodeo CR 995 0.00 23.00 / 23.00 0.00 / 0.00
7/27/2018 Monte Vista, CO San Luis Valley Ski-Hi Stampede KL 616 83.50 20.50 / 20.00 23.00 / 20.00
7/26/2018 Burwell, NE Nebraska s Big Rodeo BU 404 83.00 21.00 / 22.00 21.00 / 19.00
7/25/2018 Deadwood, SD Deadwood Days Of 76 Rodeo BH 946 79.00 20.00 / 21.00 20.00 / 18.00
7/24/2018 Cheyenne, WY Cheyenne Frontier Days UP 604 79.50 20.00 / 21.00 20.00 / 18.50
7/23/2018 Cheyenne, WY Cheyenne Frontier Days KL 723 73.00 21.00 / 21.00 13.00 / 18.00
Page of 3
Per Page
 
 
 
PRCA National Sponsors
MGM Grand Polaris Ranger American Quarter Horse Association Cinch Jeans
Copyright © 2018 Professional Rodeo Cowboys Association. All rights reserved. No portion of ProRodeo.com may be duplicated, redistributed or manipulated in any form. By accessing any information beyond this page, you agree to abide by the Terms of Use.
PRCA Wrangler National Finals Rodeo Wrangler ProRodeo Tour Finale Presented by Justin Boots Xtreme Bulls RAM National Circuit Finals Rodeo ProRodeo Gear ProRodeo Tour